KLVKKHWD

Guest
Details From KLVK - Livermore Muni
To KHWD - Hayward Executive
Flight Number -
Tags generated
Created
Modified
Stats Distance 17 nm / 31 km
Max Altitude 1,800 ft / 549 m
Waypoints 3
Social Downloads 1
Likes 0
Share VATSIM

Download

Looking for another format? Having issues loading an existing format? Contact us
Advertisement - Login to hide

Notes

Basic altitude profile: - Ascent Rate: 800ft/min - Ascent Speed: 80kts - Cruise Altitude: 12000ft - Cruise Speed: 120kts - Descent Rate: 800ft/min - Descent Speed: 80kts

Route

KLVK DECOT KHWD

ID Type Via Altitude (ft/m) Position (lat/lon) Dist (leg/tot) Name
O KLVK APT - 0 / 0 37.69318 / -121.82037 - / 0 nm Livermore Muni
DECOT FIX - 1,800 / 549 37.60604 / -122.04875 12 / 12 nm
O KHWD APT - 0 / 0 37.65925 / -122.12193 4 / 16 nm Hayward Executive

Altitude Profile

Advertisement - Login to hide

KLVK

Details ICAO KLVK (LVK)
Name Livermore Muni
Region United States
Timezone America/Los_Angeles (UTC-7.0)
Stats Elevation 399 ft / 122 m (AMSL)
Location 37.693200° -121.820000°
Runways 2
Magnetic Variation 13.255° E

METAR

KLVK 241453Z VRB04KT 10SM OVC018 14/11 A3002 RMK AO2 SLP165 T01440106 53008

Decode

TAF

TAF KLVK 241140Z 2412/2512 28004KT P6SM SCT020 TEMPO 2412/2416 5SM BR BKN020 FM241700 28004KT P6SM FEW040 FM242100 28010KT P6SM SCT040 FM250800 28006KT P6SM BKN015

Decode

Departure Runways

ID Width Length Bearing (true/mag) Surface Threshold Overrun Markings Lighting
07L 98 ft / 30 m 5,241 ft / 1,598 m 90.57° / 77.31° ASPHALT 0 ft / 0 m 151 ft / 46 m PREC-APP EDGE THRESHOLD
07R 75 ft / 23 m 2,694 ft / 821 m 90.58° / 77.32° ASPHALT 0 ft / 0 m 0 ft / 0 m VISUAL
25L 75 ft / 23 m 2,694 ft / 821 m 270.58° / 257.33° ASPHALT 0 ft / 0 m 0 ft / 0 m VISUAL
25R 98 ft / 30 m 5,241 ft / 1,598 m 270.58° / 257.33° ASPHALT 0 ft / 0 m 151 ft / 46 m PREC-APP EDGE THRESHOLD MALSR

KHWD

Details ICAO KHWD (HWD)
Name Hayward Executive
Region United States
Timezone America/Los_Angeles (UTC-7.0)
Stats Elevation 52 ft / 16 m (AMSL)
Location 37.659300° -122.122000°
Runways 2
Magnetic Variation 13.295° E

METAR

KHWD 241454Z 20003KT 10SM OVC024 15/10 A3003 RMK AO2 SLP179 T01500100 53007

Decode

TAF

Not found

Destination Runways

ID Width Length Bearing (true/mag) Surface Threshold Overrun Markings Lighting
10L 75 ft / 23 m 3,104 ft / 946 m 119.95° / 106.66° ASPHALT 0 ft / 0 m 0 ft / 0 m APP EDGE THRESHOLD
10R 151 ft / 46 m 5,688 ft / 1,734 m 119.95° / 106.65° ASPHALT 817 ft / 249 m 0 ft / 0 m APP EDGE THRESHOLD REIL-OMNI
28L 151 ft / 46 m 5,688 ft / 1,734 m 299.96° / 286.66° ASPHALT 676 ft / 206 m 0 ft / 0 m PREC-APP EDGE THRESHOLD REIL-OMNI
28R 75 ft / 23 m 3,104 ft / 946 m 299.96° / 286.66° ASPHALT 0 ft / 0 m 0 ft / 0 m APP EDGE THRESHOLD

Approach Navaids

Runway Type Ident Frequency Range Bearing (true/mag) Slope Elevation
28L DME IHWD 111.50 MHz 18 nm / 33 km - - 42 ft / 13 m (AMSL)
28L LOC-LOC IHWD 111.50 MHz 18 nm / 33 km 302.00° / 288.70 ° - 27 ft / 8 m (AMSL)

Popular Alternatives